sensor_id;sensor_type;location;lat;lon;timestamp;P1;durP1;ratioP1;P2;durP2;ratioP2
84175;SDS011;74306;40.114;18.304;2023-12-14T00:02:01;65.45;;;9.75;;
84175;SDS011;74306;40.114;18.304;2023-12-14T00:04:31;74.80;;;11.18;;
84175;SDS011;74306;40.114;18.304;2023-12-14T00:07:00;54.38;;;10.20;;
84175;SDS011;74306;40.114;18.304;2023-12-14T00:09:30;68.95;;;11.02;;
84175;SDS011;74306;40.114;18.304;2023-12-14T00:11:59;64.70;;;10.95;;
84175;SDS011;74306;40.114;18.304;2023-12-14T00:14:30;70.47;;;11.00;;
84175;SDS011;74306;40.114;18.304;2023-12-14T00:16:59;56.35;;;10.60;;
84175;SDS011;74306;40.114;18.304;2023-12-14T00:19:28;60.53;;;9.77;;
84175;SDS011;74306;40.114;18.304;2023-12-14T00:21:57;47.08;;;9.15;;
84175;SDS011;74306;40.114;18.304;2023-12-14T00:24:27;60.78;;;9.68;;
84175;SDS011;74306;40.114;18.304;2023-12-14T00:26:56;47.40;;;9.13;;
84175;SDS011;74306;40.114;18.304;2023-12-14T00:29:25;65.97;;;9.52;;
84175;SDS011;74306;40.114;18.304;2023-12-14T00:31:56;48.20;;;9.95;;
84175;SDS011;74306;40.114;18.304;2023-12-14T00:34:25;62.88;;;10.48;;
84175;SDS011;74306;40.114;18.304;2023-12-14T00:36:55;48.95;;;9.48;;
84175;SDS011;74306;40.114;18.304;2023-12-14T00:39:24;54.42;;;9.32;;
84175;SDS011;74306;40.114;18.304;2023-12-14T00:41:53;54.67;;;9.13;;
84175;SDS011;74306;40.114;18.304;2023-12-14T00:44:23;55.75;;;9.68;;
84175;SDS011;74306;40.114;18.304;2023-12-14T00:46:52;51.60;;;8.93;;
84175;SDS011;74306;40.114;18.304;2023-12-14T00:49:23;53.03;;;9.27;;
84175;SDS011;74306;40.114;18.304;2023-12-14T00:51:52;61.30;;;9.23;;
84175;SDS011;74306;40.114;18.304;2023-12-14T00:54:21;54.65;;;9.30;;
84175;SDS011;74306;40.114;18.304;2023-12-14T00:56:50;58.92;;;9.48;;
84175;SDS011;74306;40.114;18.304;2023-12-14T00:59:20;67.50;;;9.48;;
84175;SDS011;74306;40.114;18.304;2023-12-14T01:01:49;54.22;;;9.32;;
84175;SDS011;74306;40.114;18.304;2023-12-14T01:04:18;57.60;;;9.43;;
84175;SDS011;74306;40.114;18.304;2023-12-14T01:06:49;67.15;;;9.75;;
84175;SDS011;74306;40.114;18.304;2023-12-14T01:09:18;54.88;;;9.23;;
84175;SDS011;74306;40.114;18.304;2023-12-14T01:11:48;48.15;;;9.77;;
84175;SDS011;74306;40.114;18.304;2023-12-14T01:14:17;54.00;;;10.13;;
84175;SDS011;74306;40.114;18.304;2023-12-14T01:16:46;50.55;;;9.07;;
84175;SDS011;74306;40.114;18.304;2023-12-14T01:19:16;62.08;;;9.73;;
84175;SDS011;74306;40.114;18.304;2023-12-14T01:21:45;51.80;;;8.95;;
84175;SDS011;74306;40.114;18.304;2023-12-14T01:24:16;65.50;;;9.77;;
84175;SDS011;74306;40.114;18.304;2023-12-14T01:26:45;54.50;;;9.55;;
84175;SDS011;74306;40.114;18.304;2023-12-14T01:29:14;39.38;;;8.50;;
84175;SDS011;74306;40.114;18.304;2023-12-14T01:31:43;59.92;;;9.20;;
84175;SDS011;74306;40.114;18.304;2023-12-14T01:34:13;53.58;;;8.70;;
84175;SDS011;74306;40.114;18.304;2023-12-14T01:36:43;56.70;;;9.38;;
84175;SDS011;74306;40.114;18.304;2023-12-14T01:39:12;67.88;;;10.05;;
84175;SDS011;74306;40.114;18.304;2023-12-14T01:41:44;59.35;;;10.15;;
84175;SDS011;74306;40.114;18.304;2023-12-14T01:44:13;62.47;;;10.25;;
84175;SDS011;74306;40.114;18.304;2023-12-14T01:46:42;53.58;;;9.25;;
84175;SDS011;74306;40.114;18.304;2023-12-14T01:49:11;52.72;;;9.68;;
84175;SDS011;74306;40.114;18.304;2023-12-14T01:51:41;52.45;;;9.90;;
84175;SDS011;74306;40.114;18.304;2023-12-14T01:54:10;56.33;;;9.18;;
84175;SDS011;74306;40.114;18.304;2023-12-14T01:56:39;62.40;;;9.23;;
84175;SDS011;74306;40.114;18.304;2023-12-14T01:59:10;73.22;;;9.73;;
84175;SDS011;74306;40.114;18.304;2023-12-14T02:01:41;59.47;;;9.05;;
84175;SDS011;74306;40.114;18.304;2023-12-14T02:04:12;58.58;;;9.43;;
84175;SDS011;74306;40.114;18.304;2023-12-14T02:06:42;62.00;;;10.13;;
84175;SDS011;74306;40.114;18.304;2023-12-14T02:09:11;65.90;;;10.40;;
84175;SDS011;74306;40.114;18.304;2023-12-14T02:11:40;60.92;;;8.85;;
84175;SDS011;74306;40.114;18.304;2023-12-14T02:14:11;63.17;;;9.73;;
84175;SDS011;74306;40.114;18.304;2023-12-14T02:16:41;71.80;;;8.93;;
84175;SDS011;74306;40.114;18.304;2023-12-14T02:19:10;60.45;;;10.10;;
84175;SDS011;74306;40.114;18.304;2023-12-14T02:21:39;51.38;;;8.38;;
84175;SDS011;74306;40.114;18.304;2023-12-14T02:24:10;61.25;;;8.82;;
84175;SDS011;74306;40.114;18.304;2023-12-14T02:26:38;62.60;;;9.15;;
84175;SDS011;74306;40.114;18.304;2023-12-14T02:29:08;52.17;;;8.18;;
84175;SDS011;74306;40.114;18.304;2023-12-14T02:31:37;69.97;;;9.65;;
84175;SDS011;74306;40.114;18.304;2023-12-14T02:34:06;51.42;;;8.43;;
84175;SDS011;74306;40.114;18.304;2023-12-14T02:36:36;52.42;;;9.48;;
84175;SDS011;74306;40.114;18.304;2023-12-14T02:39:05;48.88;;;8.80;;
84175;SDS011;74306;40.114;18.304;2023-12-14T02:41:36;50.65;;;8.63;;
84175;SDS011;74306;40.114;18.304;2023-12-14T02:44:06;50.67;;;7.72;;
84175;SDS011;74306;40.114;18.304;2023-12-14T02:46:35;57.80;;;8.73;;
84175;SDS011;74306;40.114;18.304;2023-12-14T02:49:05;57.78;;;8.65;;
84175;SDS011;74306;40.114;18.304;2023-12-14T02:51:34;47.63;;;8.10;;
84175;SDS011;74306;40.114;18.304;2023-12-14T02:54:04;58.88;;;9.38;;
84175;SDS011;74306;40.114;18.304;2023-12-14T02:56:33;43.17;;;8.52;;
84175;SDS011;74306;40.114;18.304;2023-12-14T02:59:04;52.85;;;8.27;;
84175;SDS011;74306;40.114;18.304;2023-12-14T03:01:33;47.83;;;8.18;;
84175;SDS011;74306;40.114;18.304;2023-12-14T03:04:03;48.17;;;7.82;;
84175;SDS011;74306;40.114;18.304;2023-12-14T03:06:32;59.55;;;9.45;;
84175;SDS011;74306;40.114;18.304;2023-12-14T03:09:02;51.60;;;8.10;;
84175;SDS011;74306;40.114;18.304;2023-12-14T03:11:31;58.85;;;8.90;;
84175;SDS011;74306;40.114;18.304;2023-12-14T03:14:01;56.92;;;9.00;;
84175;SDS011;74306;40.114;18.304;2023-12-14T03:16:32;62.75;;;9.18;;
84175;SDS011;74306;40.114;18.304;2023-12-14T03:19:02;48.88;;;8.35;;
84175;SDS011;74306;40.114;18.304;2023-12-14T03:21:32;57.83;;;8.95;;
84175;SDS011;74306;40.114;18.304;2023-12-14T03:24:02;68.53;;;9.23;;
84175;SDS011;74306;40.114;18.304;2023-12-14T03:26:32;74.50;;;10.30;;
84175;SDS011;74306;40.114;18.304;2023-12-14T03:29:01;59.65;;;10.38;;
84175;SDS011;74306;40.114;18.304;2023-12-14T03:31:32;67.97;;;10.95;;
84175;SDS011;74306;40.114;18.304;2023-12-14T03:34:02;72.15;;;9.77;;
84175;SDS011;74306;40.114;18.304;2023-12-14T03:36:31;77.80;;;11.38;;
84175;SDS011;74306;40.114;18.304;2023-12-14T03:39:01;70.47;;;11.20;;
84175;SDS011;74306;40.114;18.304;2023-12-14T03:41:30;65.38;;;11.00;;
84175;SDS011;74306;40.114;18.304;2023-12-14T03:43:59;79.40;;;10.70;;
84175;SDS011;74306;40.114;18.304;2023-12-14T03:46:29;86.15;;;11.50;;
84175;SDS011;74306;40.114;18.304;2023-12-14T03:49:00;78.30;;;11.70;;
84175;SDS011;74306;40.114;18.304;2023-12-14T03:51:29;74.68;;;12.77;;
84175;SDS011;74306;40.114;18.304;2023-12-14T03:53:59;72.03;;;11.85;;
84175;SDS011;74306;40.114;18.304;2023-12-14T03:56:28;95.78;;;11.77;;
84175;SDS011;74306;40.114;18.304;2023-12-14T03:58:57;85.57;;;12.48;;
84175;SDS011;74306;40.114;18.304;2023-12-14T04:01:27;71.90;;;12.38;;
84175;SDS011;74306;40.114;18.304;2023-12-14T04:03:56;85.65;;;13.20;;
84175;SDS011;74306;40.114;18.304;2023-12-14T04:06:27;87.55;;;13.35;;
84175;SDS011;74306;40.114;18.304;2023-12-14T04:08:56;93.20;;;13.30;;
84175;SDS011;74306;40.114;18.304;2023-12-14T04:11:25;75.95;;;12.07;;
84175;SDS011;74306;40.114;18.304;2023-12-14T04:13:55;85.72;;;13.15;;
84175;SDS011;74306;40.114;18.304;2023-12-14T04:16:24;76.43;;;12.57;;
84175;SDS011;74306;40.114;18.304;2023-12-14T04:18:53;99.53;;;13.73;;
84175;SDS011;74306;40.114;18.304;2023-12-14T04:21:23;99.70;;;13.38;;
84175;SDS011;74306;40.114;18.304;2023-12-14T04:23:54;90.13;;;13.40;;
84175;SDS011;74306;40.114;18.304;2023-12-14T04:26:23;85.25;;;13.32;;
84175;SDS011;74306;40.114;18.304;2023-12-14T04:28:53;81.55;;;14.52;;
84175;SDS011;74306;40.114;18.304;2023-12-14T04:31:23;109.80;;;15.02;;
84175;SDS011;74306;40.114;18.304;2023-12-14T04:33:52;105.32;;;13.98;;
84175;SDS011;74306;40.114;18.304;2023-12-14T04:36:21;107.72;;;14.80;;
84175;SDS011;74306;40.114;18.304;2023-12-14T04:38:51;104.60;;;14.95;;
84175;SDS011;74306;40.114;18.304;2023-12-14T04:41:21;95.65;;;14.70;;
84175;SDS011;74306;40.114;18.304;2023-12-14T04:43:51;100.93;;;14.57;;
84175;SDS011;74306;40.114;18.304;2023-12-14T04:46:20;103.85;;;15.15;;
84175;SDS011;74306;40.114;18.304;2023-12-14T04:48:49;107.07;;;14.60;;
84175;SDS011;74306;40.114;18.304;2023-12-14T04:51:19;109.32;;;15.73;;
84175;SDS011;74306;40.114;18.304;2023-12-14T04:53:49;100.25;;;15.13;;
84175;SDS011;74306;40.114;18.304;2023-12-14T04:56:18;113.50;;;17.35;;
84175;SDS011;74306;40.114;18.304;2023-12-14T04:58:49;110.95;;;14.65;;
84175;SDS011;74306;40.114;18.304;2023-12-14T05:01:18;93.00;;;13.73;;
84175;SDS011;74306;40.114;18.304;2023-12-14T05:03:48;100.40;;;14.80;;
84175;SDS011;74306;40.114;18.304;2023-12-14T05:06:17;103.03;;;13.23;;
84175;SDS011;74306;40.114;18.304;2023-12-14T05:08:46;93.72;;;14.00;;
84175;SDS011;74306;40.114;18.304;2023-12-14T05:11:16;100.75;;;14.45;;
84175;SDS011;74306;40.114;18.304;2023-12-14T05:13:45;99.38;;;16.30;;
84175;SDS011;74306;40.114;18.304;2023-12-14T05:16:16;115.53;;;18.92;;
84175;SDS011;74306;40.114;18.304;2023-12-14T05:18:45;132.45;;;20.45;;
84175;SDS011;74306;40.114;18.304;2023-12-14T05:21:16;124.50;;;18.33;;
84175;SDS011;74306;40.114;18.304;2023-12-14T05:23:45;141.82;;;17.52;;
84175;SDS011;74306;40.114;18.304;2023-12-14T05:26:15;104.15;;;17.13;;
84175;SDS011;74306;40.114;18.304;2023-12-14T05:28:44;116.53;;;17.23;;
84175;SDS011;74306;40.114;18.304;2023-12-14T05:31:15;99.65;;;15.35;;
84175;SDS011;74306;40.114;18.304;2023-12-14T05:33:46;110.97;;;16.20;;
84175;SDS011;74306;40.114;18.304;2023-12-14T05:36:15;121.70;;;15.80;;
84175;SDS011;74306;40.114;18.304;2023-12-14T05:38:44;114.22;;;16.48;;
84175;SDS011;74306;40.114;18.304;2023-12-14T05:41:14;127.18;;;17.20;;
84175;SDS011;74306;40.114;18.304;2023-12-14T05:43:44;99.13;;;15.85;;
84175;SDS011;74306;40.114;18.304;2023-12-14T05:46:21;129.43;;;14.90;;
84175;SDS011;74306;40.114;18.304;2023-12-14T05:48:51;124.95;;;17.27;;
84175;SDS011;74306;40.114;18.304;2023-12-14T05:51:29;117.93;;;18.30;;
84175;SDS011;74306;40.114;18.304;2023-12-14T05:53:59;108.60;;;15.40;;
84175;SDS011;74306;40.114;18.304;2023-12-14T05:56:28;126.10;;;16.30;;
84175;SDS011;74306;40.114;18.304;2023-12-14T05:58:57;110.22;;;14.27;;
84175;SDS011;74306;40.114;18.304;2023-12-14T06:01:29;112.88;;;15.55;;
84175;SDS011;74306;40.114;18.304;2023-12-14T06:03:59;94.72;;;13.57;;
84175;SDS011;74306;40.114;18.304;2023-12-14T06:06:30;109.45;;;14.63;;
84175;SDS011;74306;40.114;18.304;2023-12-14T06:08:59;131.05;;;14.50;;
84175;SDS011;74306;40.114;18.304;2023-12-14T06:11:28;96.97;;;15.90;;
84175;SDS011;74306;40.114;18.304;2023-12-14T06:13:57;103.10;;;14.70;;
84175;SDS011;74306;40.114;18.304;2023-12-14T06:16:28;106.10;;;14.88;;
84175;SDS011;74306;40.114;18.304;2023-12-14T06:18:57;89.45;;;13.25;;
84175;SDS011;74306;40.114;18.304;2023-12-14T06:21:27;128.25;;;15.20;;
84175;SDS011;74306;40.114;18.304;2023-12-14T06:23:56;131.88;;;15.88;;
84175;SDS011;74306;40.114;18.304;2023-12-14T06:26:26;100.75;;;15.07;;
84175;SDS011;74306;40.114;18.304;2023-12-14T06:28:56;100.82;;;13.65;;
84175;SDS011;74306;40.114;18.304;2023-12-14T06:31:25;103.20;;;14.02;;
84175;SDS011;74306;40.114;18.304;2023-12-14T06:33:57;108.63;;;14.00;;
84175;SDS011;74306;40.114;18.304;2023-12-14T06:36:30;87.10;;;13.38;;
84175;SDS011;74306;40.114;18.304;2023-12-14T06:39:00;95.03;;;13.30;;
84175;SDS011;74306;40.114;18.304;2023-12-14T06:41:30;113.57;;;14.32;;
84175;SDS011;74306;40.114;18.304;2023-12-14T06:43:59;111.93;;;14.68;;
84175;SDS011;74306;40.114;18.304;2023-12-14T06:46:29;92.15;;;13.35;;
84175;SDS011;74306;40.114;18.304;2023-12-14T06:48:59;88.82;;;13.13;;
84175;SDS011;74306;40.114;18.304;2023-12-14T06:51:29;100.03;;;14.07;;
84175;SDS011;74306;40.114;18.304;2023-12-14T06:53:58;96.28;;;14.40;;
84175;SDS011;74306;40.114;18.304;2023-12-14T06:56:27;93.50;;;14.13;;
84175;SDS011;74306;40.114;18.304;2023-12-14T06:58:57;95.20;;;13.30;;
84175;SDS011;74306;40.114;18.304;2023-12-14T07:01:26;89.07;;;12.90;;
84175;SDS011;74306;40.114;18.304;2023-12-14T07:03:55;70.68;;;12.60;;
84175;SDS011;74306;40.114;18.304;2023-12-14T07:06:26;71.82;;;11.52;;
84175;SDS011;74306;40.114;18.304;2023-12-14T07:08:55;72.72;;;11.27;;
84175;SDS011;74306;40.114;18.304;2023-12-14T07:11:25;70.50;;;12.65;;
84175;SDS011;74306;40.114;18.304;2023-12-14T07:13:54;68.75;;;10.10;;
84175;SDS011;74306;40.114;18.304;2023-12-14T07:16:23;57.25;;;9.85;;
84175;SDS011;74306;40.114;18.304;2023-12-14T07:18:53;56.58;;;9.80;;
84175;SDS011;74306;40.114;18.304;2023-12-14T07:21:22;53.08;;;10.00;;
84175;SDS011;74306;40.114;18.304;2023-12-14T07:23:53;51.13;;;9.20;;
84175;SDS011;74306;40.114;18.304;2023-12-14T07:26:22;51.08;;;9.57;;
84175;SDS011;74306;40.114;18.304;2023-12-14T07:28:53;44.30;;;8.90;;
84175;SDS011;74306;40.114;18.304;2023-12-14T07:31:23;58.72;;;9.32;;
84175;SDS011;74306;40.114;18.304;2023-12-14T07:33:52;49.75;;;9.05;;
84175;SDS011;74306;40.114;18.304;2023-12-14T07:36:21;46.95;;;8.52;;
84175;SDS011;74306;40.114;18.304;2023-12-14T07:38:52;54.85;;;9.32;;
84175;SDS011;74306;40.114;18.304;2023-12-14T07:41:21;51.90;;;9.55;;
84175;SDS011;74306;40.114;18.304;2023-12-14T07:43:55;47.05;;;9.43;;
84175;SDS011;74306;40.114;18.304;2023-12-14T07:46:24;40.25;;;8.73;;
84175;SDS011;74306;40.114;18.304;2023-12-14T07:48:53;39.55;;;8.10;;
84175;SDS011;74306;40.114;18.304;2023-12-14T07:51:22;47.60;;;9.13;;
84175;SDS011;74306;40.114;18.304;2023-12-14T07:53:54;42.28;;;9.23;;
84175;SDS011;74306;40.114;18.304;2023-12-14T07:56:29;38.83;;;8.63;;
84175;SDS011;74306;40.114;18.304;2023-12-14T07:59:00;43.13;;;8.65;;
84175;SDS011;74306;40.114;18.304;2023-12-14T08:01:33;37.75;;;8.32;;
84175;SDS011;74306;40.114;18.304;2023-12-14T08:04:03;32.90;;;7.63;;
84175;SDS011;74306;40.114;18.304;2023-12-14T08:06:32;38.97;;;8.10;;
84175;SDS011;74306;40.114;18.304;2023-12-14T08:09:03;40.13;;;8.20;;
84175;SDS011;74306;40.114;18.304;2023-12-14T08:11:33;39.72;;;8.40;;
84175;SDS011;74306;40.114;18.304;2023-12-14T08:14:02;34.35;;;8.15;;
84175;SDS011;74306;40.114;18.304;2023-12-14T08:16:31;26.73;;;8.02;;
84175;SDS011;74306;40.114;18.304;2023-12-14T08:19:00;40.10;;;9.05;;
84175;SDS011;74306;40.114;18.304;2023-12-14T08:21:30;26.83;;;7.78;;
84175;SDS011;74306;40.114;18.304;2023-12-14T08:23:59;30.10;;;8.40;;
84175;SDS011;74306;40.114;18.304;2023-12-14T08:26:31;31.10;;;7.63;;
84175;SDS011;74306;40.114;18.304;2023-12-14T08:29:00;30.10;;;8.02;;
84175;SDS011;74306;40.114;18.304;2023-12-14T08:31:29;27.83;;;7.25;;
84175;SDS011;74306;40.114;18.304;2023-12-14T08:33:59;24.15;;;7.45;;
84175;SDS011;74306;40.114;18.304;2023-12-14T08:36:28;27.00;;;7.20;;
84175;SDS011;74306;40.114;18.304;2023-12-14T08:38:58;29.77;;;7.60;;
84175;SDS011;74306;40.114;18.304;2023-12-14T08:41:28;22.90;;;7.03;;
84175;SDS011;74306;40.114;18.304;2023-12-14T08:43:59;33.50;;;8.35;;
84175;SDS011;74306;40.114;18.304;2023-12-14T08:46:29;26.73;;;8.40;;
84175;SDS011;74306;40.114;18.304;2023-12-14T08:49:06;30.33;;;8.20;;
84175;SDS011;74306;40.114;18.304;2023-12-14T08:51:36;23.42;;;8.23;;
84175;SDS011;74306;40.114;18.304;2023-12-14T08:54:05;24.20;;;8.35;;
84175;SDS011;74306;40.114;18.304;2023-12-14T08:56:38;27.50;;;7.25;;
84175;SDS011;74306;40.114;18.304;2023-12-14T08:59:07;25.73;;;8.13;;
84175;SDS011;74306;40.114;18.304;2023-12-14T09:01:38;21.15;;;7.70;;
84175;SDS011;74306;40.114;18.304;2023-12-14T09:04:07;24.67;;;7.60;;
84175;SDS011;74306;40.114;18.304;2023-12-14T09:06:37;22.67;;;7.95;;
84175;SDS011;74306;40.114;18.304;2023-12-14T09:09:10;22.45;;;7.85;;
84175;SDS011;74306;40.114;18.304;2023-12-14T09:11:41;23.55;;;8.50;;
84175;SDS011;74306;40.114;18.304;2023-12-14T09:14:10;25.40;;;8.65;;
84175;SDS011;74306;40.114;18.304;2023-12-14T09:16:40;25.85;;;8.95;;
84175;SDS011;74306;40.114;18.304;2023-12-14T09:19:09;26.20;;;8.52;;
84175;SDS011;74306;40.114;18.304;2023-12-14T09:21:39;27.02;;;8.50;;
84175;SDS011;74306;40.114;18.304;2023-12-14T09:24:10;24.60;;;8.38;;
84175;SDS011;74306;40.114;18.304;2023-12-14T09:26:40;28.92;;;9.05;;
84175;SDS011;74306;40.114;18.304;2023-12-14T09:29:10;23.92;;;8.15;;
84175;SDS011;74306;40.114;18.304;2023-12-14T09:31:41;30.90;;;8.45;;
84175;SDS011;74306;40.114;18.304;2023-12-14T09:34:11;21.88;;;6.95;;
84175;SDS011;74306;40.114;18.304;2023-12-14T09:36:40;22.10;;;7.60;;
84175;SDS011;74306;40.114;18.304;2023-12-14T09:39:10;19.80;;;7.53;;
84175;SDS011;74306;40.114;18.304;2023-12-14T09:41:39;21.38;;;7.40;;
84175;SDS011;74306;40.114;18.304;2023-12-14T09:44:10;22.80;;;7.97;;
84175;SDS011;74306;40.114;18.304;2023-12-14T09:46:40;25.95;;;7.53;;
84175;SDS011;74306;40.114;18.304;2023-12-14T09:49:16;24.58;;;7.30;;
84175;SDS011;74306;40.114;18.304;2023-12-14T09:51:46;20.42;;;7.35;;
84175;SDS011;74306;40.114;18.304;2023-12-14T09:54:16;26.48;;;7.65;;
84175;SDS011;74306;40.114;18.304;2023-12-14T09:56:47;25.00;;;7.57;;
84175;SDS011;74306;40.114;18.304;2023-12-14T09:59:17;20.02;;;7.57;;
84175;SDS011;74306;40.114;18.304;2023-12-14T10:01:46;21.00;;;7.80;;
84175;SDS011;74306;40.114;18.304;2023-12-14T10:04:18;27.15;;;7.57;;
84175;SDS011;74306;40.114;18.304;2023-12-14T10:06:49;19.48;;;7.35;;
84175;SDS011;74306;40.114;18.304;2023-12-14T10:09:22;23.83;;;8.57;;
84175;SDS011;74306;40.114;18.304;2023-12-14T10:12:01;25.90;;;8.38;;
84175;SDS011;74306;40.114;18.304;2023-12-14T10:14:32;24.75;;;8.93;;
84175;SDS011;74306;40.114;18.304;2023-12-14T10:19:47;24.63;;;8.02;;
84175;SDS011;74306;40.114;18.304;2023-12-14T10:22:17;20.65;;;8.48;;
84175;SDS011;74306;40.114;18.304;2023-12-14T10:24:47;22.45;;;8.63;;
84175;SDS011;74306;40.114;18.304;2023-12-14T10:27:18;22.65;;;8.13;;
84175;SDS011;74306;40.114;18.304;2023-12-14T10:29:48;22.75;;;8.80;;
84175;SDS011;74306;40.114;18.304;2023-12-14T10:32:18;19.48;;;8.15;;
84175;SDS011;74306;40.114;18.304;2023-12-14T10:34:48;24.95;;;9.10;;
84175;SDS011;74306;40.114;18.304;2023-12-14T10:37:18;21.88;;;8.38;;
84175;SDS011;74306;40.114;18.304;2023-12-14T10:39:50;18.30;;;8.50;;
84175;SDS011;74306;40.114;18.304;2023-12-14T10:42:22;24.27;;;8.70;;
84175;SDS011;74306;40.114;18.304;2023-12-14T10:44:56;21.13;;;8.57;;
84175;SDS011;74306;40.114;18.304;2023-12-14T10:47:31;20.80;;;7.87;;
84175;SDS011;74306;40.114;18.304;2023-12-14T10:50:01;20.58;;;7.93;;
84175;SDS011;74306;40.114;18.304;2023-12-14T10:52:33;20.00;;;7.93;;
84175;SDS011;74306;40.114;18.304;2023-12-14T10:55:05;21.13;;;8.32;;
84175;SDS011;74306;40.114;18.304;2023-12-14T10:57:39;20.35;;;6.88;;
84175;SDS011;74306;40.114;18.304;2023-12-14T11:00:09;21.75;;;7.00;;
84175;SDS011;74306;40.114;18.304;2023-12-14T11:02:39;27.77;;;7.07;;
84175;SDS011;74306;40.114;18.304;2023-12-14T11:05:12;19.00;;;7.10;;
84175;SDS011;74306;40.114;18.304;2023-12-14T11:07:44;19.30;;;7.85;;
84175;SDS011;74306;40.114;18.304;2023-12-14T11:10:15;23.63;;;8.18;;
84175;SDS011;74306;40.114;18.304;2023-12-14T11:12:52;21.15;;;7.30;;
84175;SDS011;74306;40.114;18.304;2023-12-14T11:15:25;17.90;;;7.68;;
84175;SDS011;74306;40.114;18.304;2023-12-14T11:20:55;24.70;;;7.63;;
84175;SDS011;74306;40.114;18.304;2023-12-14T11:23:27;24.10;;;7.18;;
84175;SDS011;74306;40.114;18.304;2023-12-14T11:26:05;25.00;;;7.30;;
84175;SDS011;74306;40.114;18.304;2023-12-14T11:28:39;23.50;;;7.05;;
84175;SDS011;74306;40.114;18.304;2023-12-14T11:31:10;20.98;;;7.15;;
84175;SDS011;74306;40.114;18.304;2023-12-14T11:33:40;22.05;;;6.15;;
84175;SDS011;74306;40.114;18.304;2023-12-14T11:36:12;17.50;;;5.25;;
84175;SDS011;74306;40.114;18.304;2023-12-14T11:38:41;17.98;;;5.63;;
84175;SDS011;74306;40.114;18.304;2023-12-14T11:41:12;17.17;;;5.40;;
84175;SDS011;74306;40.114;18.304;2023-12-14T11:43:43;19.02;;;5.20;;
84175;SDS011;74306;40.114;18.304;2023-12-14T11:46:14;16.27;;;4.85;;
84175;SDS011;74306;40.114;18.304;2023-12-14T11:48:44;17.77;;;5.25;;
84175;SDS011;74306;40.114;18.304;2023-12-14T11:51:15;14.57;;;4.97;;
84175;SDS011;74306;40.114;18.304;2023-12-14T11:53:45;11.65;;;4.30;;
84175;SDS011;74306;40.114;18.304;2023-12-14T11:56:17;24.65;;;5.55;;
84175;SDS011;74306;40.114;18.304;2023-12-14T11:58:48;14.05;;;5.70;;
84175;SDS011;74306;40.114;18.304;2023-12-14T12:01:18;20.73;;;6.22;;
84175;SDS011;74306;40.114;18.304;2023-12-14T12:03:50;15.43;;;5.40;;
84175;SDS011;74306;40.114;18.304;2023-12-14T12:06:20;14.93;;;4.60;;
84175;SDS011;74306;40.114;18.304;2023-12-14T12:08:50;13.20;;;4.25;;
84175;SDS011;74306;40.114;18.304;2023-12-14T12:11:21;13.82;;;4.38;;
84175;SDS011;74306;40.114;18.304;2023-12-14T12:13:54;15.18;;;4.03;;
84175;SDS011;74306;40.114;18.304;2023-12-14T12:16:23;12.80;;;4.10;;
84175;SDS011;74306;40.114;18.304;2023-12-14T12:18:52;14.27;;;3.70;;
84175;SDS011;74306;40.114;18.304;2023-12-14T12:21:22;10.43;;;3.78;;
84175;SDS011;74306;40.114;18.304;2023-12-14T12:23:52;10.60;;;3.78;;
84175;SDS011;74306;40.114;18.304;2023-12-14T12:26:21;9.60;;;3.30;;
84175;SDS011;74306;40.114;18.304;2023-12-14T12:28:51;12.80;;;4.03;;
84175;SDS011;74306;40.114;18.304;2023-12-14T12:31:21;13.20;;;4.07;;
84175;SDS011;74306;40.114;18.304;2023-12-14T12:33:51;10.27;;;3.47;;
84175;SDS011;74306;40.114;18.304;2023-12-14T12:36:20;8.63;;;2.92;;
84175;SDS011;74306;40.114;18.304;2023-12-14T12:38:49;8.95;;;2.88;;
84175;SDS011;74306;40.114;18.304;2023-12-14T12:41:20;7.30;;;2.28;;
84175;SDS011;74306;40.114;18.304;2023-12-14T12:43:49;7.55;;;2.60;;
84175;SDS011;74306;40.114;18.304;2023-12-14T12:46:19;10.68;;;2.45;;
84175;SDS011;74306;40.114;18.304;2023-12-14T12:48:50;10.38;;;2.80;;
84175;SDS011;74306;40.114;18.304;2023-12-14T12:51:20;8.00;;;2.30;;
84175;SDS011;74306;40.114;18.304;2023-12-14T12:53:49;7.05;;;2.50;;
84175;SDS011;74306;40.114;18.304;2023-12-14T12:56:19;7.70;;;2.63;;
84175;SDS011;74306;40.114;18.304;2023-12-14T12:58:49;7.05;;;2.60;;
84175;SDS011;74306;40.114;18.304;2023-12-14T13:01:21;6.53;;;2.58;;
84175;SDS011;74306;40.114;18.304;2023-12-14T13:03:55;7.47;;;2.50;;
84175;SDS011;74306;40.114;18.304;2023-12-14T13:06:25;9.23;;;2.53;;
84175;SDS011;74306;40.114;18.304;2023-12-14T13:08:55;5.53;;;1.90;;
84175;SDS011;74306;40.114;18.304;2023-12-14T13:11:25;3.60;;;1.83;;
84175;SDS011;74306;40.114;18.304;2023-12-14T13:13:54;3.30;;;1.55;;
84175;SDS011;74306;40.114;18.304;2023-12-14T13:16:23;4.15;;;1.90;;
84175;SDS011;74306;40.114;18.304;2023-12-14T13:18:56;4.82;;;2.08;;
84175;SDS011;74306;40.114;18.304;2023-12-14T13:21:25;3.60;;;1.73;;
84175;SDS011;74306;40.114;18.304;2023-12-14T13:23:55;3.58;;;1.60;;
84175;SDS011;74306;40.114;18.304;2023-12-14T13:26:25;7.03;;;1.95;;
84175;SDS011;74306;40.114;18.304;2023-12-14T13:28:54;2.17;;;1.15;;
84175;SDS011;74306;40.114;18.304;2023-12-14T13:31:25;2.58;;;1.38;;
84175;SDS011;74306;40.114;18.304;2023-12-14T13:33:57;3.58;;;1.17;;
84175;SDS011;74306;40.114;18.304;2023-12-14T13:36:26;2.67;;;1.33;;
84175;SDS011;74306;40.114;18.304;2023-12-14T13:38:55;2.00;;;1.10;;
84175;SDS011;74306;40.114;18.304;2023-12-14T13:41:25;2.35;;;1.10;;
84175;SDS011;74306;40.114;18.304;2023-12-14T13:43:55;3.55;;;1.40;;
84175;SDS011;74306;40.114;18.304;2023-12-14T13:46:24;4.45;;;1.70;;
84175;SDS011;74306;40.114;18.304;2023-12-14T13:48:53;6.00;;;2.00;;
84175;SDS011;74306;40.114;18.304;2023-12-14T13:51:24;3.58;;;1.77;;
84175;SDS011;74306;40.114;18.304;2023-12-14T13:53:54;4.50;;;1.80;;
84175;SDS011;74306;40.114;18.304;2023-12-14T13:56:23;5.85;;;1.95;;
84175;SDS011;74306;40.114;18.304;2023-12-14T13:58:52;4.20;;;1.80;;
84175;SDS011;74306;40.114;18.304;2023-12-14T14:01:22;4.53;;;2.00;;
84175;SDS011;74306;40.114;18.304;2023-12-14T14:03:52;4.85;;;2.00;;
84175;SDS011;74306;40.114;18.304;2023-12-14T14:06:21;4.07;;;2.13;;
84175;SDS011;74306;40.114;18.304;2023-12-14T14:08:52;5.82;;;2.25;;
84175;SDS011;74306;40.114;18.304;2023-12-14T14:11:22;7.55;;;2.50;;
84175;SDS011;74306;40.114;18.304;2023-12-14T14:13:52;6.32;;;2.25;;
84175;SDS011;74306;40.114;18.304;2023-12-14T14:16:21;3.92;;;1.80;;
84175;SDS011;74306;40.114;18.304;2023-12-14T14:18:51;8.40;;;2.28;;
84175;SDS011;74306;40.114;18.304;2023-12-14T14:21:20;6.15;;;2.40;;
84175;SDS011;74306;40.114;18.304;2023-12-14T14:23:51;4.75;;;2.10;;
84175;SDS011;74306;40.114;18.304;2023-12-14T14:26:21;7.10;;;2.30;;
84175;SDS011;74306;40.114;18.304;2023-12-14T14:28:50;5.70;;;2.40;;
84175;SDS011;74306;40.114;18.304;2023-12-14T14:31:22;6.90;;;2.45;;
84175;SDS011;74306;40.114;18.304;2023-12-14T14:33:51;5.53;;;2.60;;
84175;SDS011;74306;40.114;18.304;2023-12-14T14:36:20;8.15;;;2.97;;
84175;SDS011;74306;40.114;18.304;2023-12-14T14:38:50;5.60;;;2.35;;
84175;SDS011;74306;40.114;18.304;2023-12-14T14:41:22;6.13;;;2.22;;